sensor_id;sensor_type;location;lat;lon;timestamp;temperature;humidity
20526;DHT22;10421;49.142;9.232;2023-12-20T00:02:02;9.60;99.90
20526;DHT22;10421;49.142;9.232;2023-12-20T00:04:29;9.60;99.90
20526;DHT22;10421;49.142;9.232;2023-12-20T00:06:56;9.60;99.90
20526;DHT22;10421;49.142;9.232;2023-12-20T00:09:22;9.60;99.90
20526;DHT22;10421;49.142;9.232;2023-12-20T00:11:49;9.60;99.90
20526;DHT22;10421;49.142;9.232;2023-12-20T00:14:17;9.60;99.90
20526;DHT22;10421;49.142;9.232;2023-12-20T00:16:44;9.60;99.90
20526;DHT22;10421;49.142;9.232;2023-12-20T00:19:10;9.60;99.90
20526;DHT22;10421;49.142;9.232;2023-12-20T00:21:37;9.60;99.90
20526;DHT22;10421;49.142;9.232;2023-12-20T00:24:04;9.60;99.90
20526;DHT22;10421;49.142;9.232;2023-12-20T00:26:31;9.60;99.90
20526;DHT22;10421;49.142;9.232;2023-12-20T00:28:58;9.60;99.90
20526;DHT22;10421;49.142;9.232;2023-12-20T00:31:26;9.60;99.90
20526;DHT22;10421;49.142;9.232;2023-12-20T00:33:53;9.50;99.90
20526;DHT22;10421;49.142;9.232;2023-12-20T00:36:20;9.50;99.90
20526;DHT22;10421;49.142;9.232;2023-12-20T00:38:46;9.50;99.90
20526;DHT22;10421;49.142;9.232;2023-12-20T00:41:13;9.50;99.90
20526;DHT22;10421;49.142;9.232;2023-12-20T00:43:40;9.50;99.90
20526;DHT22;10421;49.142;9.232;2023-12-20T00:46:06;9.60;99.90
20526;DHT22;10421;49.142;9.232;2023-12-20T00:48:34;9.60;99.90
20526;DHT22;10421;49.142;9.232;2023-12-20T00:51:01;9.50;99.90
20526;DHT22;10421;49.142;9.232;2023-12-20T00:53:29;9.50;99.90
20526;DHT22;10421;49.142;9.232;2023-12-20T00:55:55;9.50;99.90
20526;DHT22;10421;49.142;9.232;2023-12-20T00:58:24;9.50;99.90
20526;DHT22;10421;49.142;9.232;2023-12-20T01:00:50;9.50;99.90
20526;DHT22;10421;49.142;9.232;2023-12-20T01:03:16;9.40;99.90
20526;DHT22;10421;49.142;9.232;2023-12-20T01:05:44;9.30;99.90
20526;DHT22;10421;49.142;9.232;2023-12-20T01:08:11;9.20;99.90
20526;DHT22;10421;49.142;9.232;2023-12-20T01:10:38;9.20;99.90
20526;DHT22;10421;49.142;9.232;2023-12-20T01:13:05;9.10;99.90
20526;DHT22;10421;49.142;9.232;2023-12-20T01:15:32;8.90;99.90
20526;DHT22;10421;49.142;9.232;2023-12-20T01:17:59;8.90;99.90
20526;DHT22;10421;49.142;9.232;2023-12-20T01:20:26;8.80;99.90
20526;DHT22;10421;49.142;9.232;2023-12-20T01:22:54;8.80;99.90
20526;DHT22;10421;49.142;9.232;2023-12-20T01:25:20;8.80;99.90
20526;DHT22;10421;49.142;9.232;2023-12-20T01:27:47;8.90;99.90
20526;DHT22;10421;49.142;9.232;2023-12-20T01:30:14;8.90;99.90
20526;DHT22;10421;49.142;9.232;2023-12-20T01:32:41;8.90;99.90
20526;DHT22;10421;49.142;9.232;2023-12-20T01:35:08;8.90;99.90
20526;DHT22;10421;49.142;9.232;2023-12-20T01:37:35;8.80;99.90
20526;DHT22;10421;49.142;9.232;2023-12-20T01:40:03;8.70;99.90
20526;DHT22;10421;49.142;9.232;2023-12-20T01:42:30;8.70;99.90
20526;DHT22;10421;49.142;9.232;2023-12-20T01:44:57;8.70;99.90
20526;DHT22;10421;49.142;9.232;2023-12-20T01:47:24;8.50;99.90
20526;DHT22;10421;49.142;9.232;2023-12-20T01:49:52;8.40;99.90
20526;DHT22;10421;49.142;9.232;2023-12-20T01:52:20;8.40;99.90
20526;DHT22;10421;49.142;9.232;2023-12-20T01:54:47;8.50;99.90
20526;DHT22;10421;49.142;9.232;2023-12-20T01:57:16;8.60;99.90
20526;DHT22;10421;49.142;9.232;2023-12-20T01:59:43;8.70;99.90
20526;DHT22;10421;49.142;9.232;2023-12-20T02:02:10;8.60;99.90
20526;DHT22;10421;49.142;9.232;2023-12-20T02:04:38;8.60;99.90
20526;DHT22;10421;49.142;9.232;2023-12-20T02:07:05;8.50;99.90
20526;DHT22;10421;49.142;9.232;2023-12-20T02:09:33;8.40;99.90
20526;DHT22;10421;49.142;9.232;2023-12-20T02:12:00;8.30;99.90
20526;DHT22;10421;49.142;9.232;2023-12-20T02:14:28;8.30;99.90
20526;DHT22;10421;49.142;9.232;2023-12-20T02:16:55;8.30;99.90
20526;DHT22;10421;49.142;9.232;2023-12-20T02:19:21;8.10;99.90
20526;DHT22;10421;49.142;9.232;2023-12-20T02:21:49;8.20;99.90
20526;DHT22;10421;49.142;9.232;2023-12-20T02:24:16;8.20;99.90
20526;DHT22;10421;49.142;9.232;2023-12-20T02:26:44;8.20;99.90
20526;DHT22;10421;49.142;9.232;2023-12-20T02:29:10;8.30;99.90
20526;DHT22;10421;49.142;9.232;2023-12-20T02:31:37;8.30;99.90
20526;DHT22;10421;49.142;9.232;2023-12-20T02:34:04;8.20;99.90
20526;DHT22;10421;49.142;9.232;2023-12-20T02:36:30;8.10;99.90
20526;DHT22;10421;49.142;9.232;2023-12-20T02:38:58;8.10;99.90
20526;DHT22;10421;49.142;9.232;2023-12-20T02:41:25;8.20;99.90
20526;DHT22;10421;49.142;9.232;2023-12-20T02:43:52;8.10;99.90
20526;DHT22;10421;49.142;9.232;2023-12-20T02:46:19;8.20;99.90
20526;DHT22;10421;49.142;9.232;2023-12-20T02:48:45;8.10;99.90
20526;DHT22;10421;49.142;9.232;2023-12-20T02:51:13;8.00;99.90
20526;DHT22;10421;49.142;9.232;2023-12-20T02:53:40;8.00;99.90
20526;DHT22;10421;49.142;9.232;2023-12-20T02:56:08;8.00;99.90
20526;DHT22;10421;49.142;9.232;2023-12-20T02:58:34;8.00;99.90
20526;DHT22;10421;49.142;9.232;2023-12-20T03:01:01;8.00;99.90
20526;DHT22;10421;49.142;9.232;2023-12-20T03:03:28;8.00;99.90
20526;DHT22;10421;49.142;9.232;2023-12-20T03:05:55;8.10;99.90
20526;DHT22;10421;49.142;9.232;2023-12-20T03:08:22;8.00;99.90
20526;DHT22;10421;49.142;9.232;2023-12-20T03:10:49;8.00;99.90
20526;DHT22;10421;49.142;9.232;2023-12-20T03:13:17;8.10;99.90
20526;DHT22;10421;49.142;9.232;2023-12-20T03:15:43;8.00;99.90
20526;DHT22;10421;49.142;9.232;2023-12-20T03:18:10;8.00;99.90
20526;DHT22;10421;49.142;9.232;2023-12-20T03:20:37;8.00;99.90
20526;DHT22;10421;49.142;9.232;2023-12-20T03:23:04;8.20;99.90
20526;DHT22;10421;49.142;9.232;2023-12-20T03:25:30;8.20;99.90
20526;DHT22;10421;49.142;9.232;2023-12-20T03:27:57;8.30;99.90
20526;DHT22;10421;49.142;9.232;2023-12-20T03:30:25;8.30;99.90
20526;DHT22;10421;49.142;9.232;2023-12-20T03:32:52;8.30;99.90
20526;DHT22;10421;49.142;9.232;2023-12-20T03:35:19;8.20;99.90
20526;DHT22;10421;49.142;9.232;2023-12-20T03:37:45;8.10;99.90
20526;DHT22;10421;49.142;9.232;2023-12-20T03:40:12;8.00;99.90
20526;DHT22;10421;49.142;9.232;2023-12-20T03:42:39;8.10;99.90
20526;DHT22;10421;49.142;9.232;2023-12-20T03:45:06;8.00;99.90
20526;DHT22;10421;49.142;9.232;2023-12-20T03:47:34;8.10;99.90
20526;DHT22;10421;49.142;9.232;2023-12-20T03:50:01;8.10;99.90
20526;DHT22;10421;49.142;9.232;2023-12-20T03:52:28;8.10;99.90
20526;DHT22;10421;49.142;9.232;2023-12-20T03:54:55;8.10;99.90
20526;DHT22;10421;49.142;9.232;2023-12-20T03:57:22;8.10;99.90
20526;DHT22;10421;49.142;9.232;2023-12-20T03:59:48;8.10;99.90
20526;DHT22;10421;49.142;9.232;2023-12-20T04:02:15;8.20;99.90
20526;DHT22;10421;49.142;9.232;2023-12-20T04:04:44;8.10;99.90
20526;DHT22;10421;49.142;9.232;2023-12-20T04:07:11;8.00;99.90
20526;DHT22;10421;49.142;9.232;2023-12-20T04:09:38;8.10;99.90
20526;DHT22;10421;49.142;9.232;2023-12-20T04:12:05;8.10;99.90
20526;DHT22;10421;49.142;9.232;2023-12-20T04:14:32;8.10;99.90
20526;DHT22;10421;49.142;9.232;2023-12-20T04:16:59;8.20;99.90
20526;DHT22;10421;49.142;9.232;2023-12-20T04:19:25;8.30;99.90
20526;DHT22;10421;49.142;9.232;2023-12-20T04:21:53;8.40;99.90
20526;DHT22;10421;49.142;9.232;2023-12-20T04:24:20;8.50;99.90
20526;DHT22;10421;49.142;9.232;2023-12-20T04:26:47;8.40;99.90
20526;DHT22;10421;49.142;9.232;2023-12-20T04:29:14;8.40;99.90
20526;DHT22;10421;49.142;9.232;2023-12-20T04:31:41;8.50;99.90
20526;DHT22;10421;49.142;9.232;2023-12-20T04:34:07;8.50;99.90
20526;DHT22;10421;49.142;9.232;2023-12-20T04:36:34;8.60;99.90
20526;DHT22;10421;49.142;9.232;2023-12-20T04:39:02;8.50;99.90
20526;DHT22;10421;49.142;9.232;2023-12-20T04:41:29;8.50;99.90
20526;DHT22;10421;49.142;9.232;2023-12-20T04:43:56;8.40;99.90
20526;DHT22;10421;49.142;9.232;2023-12-20T04:46:22;8.20;99.90
20526;DHT22;10421;49.142;9.232;2023-12-20T04:48:49;8.20;99.90
20526;DHT22;10421;49.142;9.232;2023-12-20T04:51:16;8.10;99.90
20526;DHT22;10421;49.142;9.232;2023-12-20T04:53:42;8.30;99.90
20526;DHT22;10421;49.142;9.232;2023-12-20T04:56:10;8.30;99.90
20526;DHT22;10421;49.142;9.232;2023-12-20T04:58:37;8.20;99.90
20526;DHT22;10421;49.142;9.232;2023-12-20T05:01:05;8.20;99.90
20526;DHT22;10421;49.142;9.232;2023-12-20T05:03:32;8.20;99.90
20526;DHT22;10421;49.142;9.232;2023-12-20T05:05:59;8.10;99.90
20526;DHT22;10421;49.142;9.232;2023-12-20T05:08:26;8.00;99.90
20526;DHT22;10421;49.142;9.232;2023-12-20T05:10:54;7.90;99.90
20526;DHT22;10421;49.142;9.232;2023-12-20T05:13:22;8.00;99.90
20526;DHT22;10421;49.142;9.232;2023-12-20T05:15:49;8.00;99.90
20526;DHT22;10421;49.142;9.232;2023-12-20T05:18:16;8.10;99.90
20526;DHT22;10421;49.142;9.232;2023-12-20T05:20:43;7.90;99.90
20526;DHT22;10421;49.142;9.232;2023-12-20T05:23:09;8.00;99.90
20526;DHT22;10421;49.142;9.232;2023-12-20T05:25:37;8.10;99.90
20526;DHT22;10421;49.142;9.232;2023-12-20T05:28:04;8.10;99.90
20526;DHT22;10421;49.142;9.232;2023-12-20T05:30:32;8.00;99.90
20526;DHT22;10421;49.142;9.232;2023-12-20T05:32:58;8.00;99.90
20526;DHT22;10421;49.142;9.232;2023-12-20T05:35:25;8.00;99.90
20526;DHT22;10421;49.142;9.232;2023-12-20T05:37:52;8.10;99.90
20526;DHT22;10421;49.142;9.232;2023-12-20T05:40:19;8.20;99.90
20526;DHT22;10421;49.142;9.232;2023-12-20T05:42:45;8.20;99.90
20526;DHT22;10421;49.142;9.232;2023-12-20T05:45:14;8.10;99.90
20526;DHT22;10421;49.142;9.232;2023-12-20T05:47:42;8.10;99.90
20526;DHT22;10421;49.142;9.232;2023-12-20T05:50:09;8.10;99.90
20526;DHT22;10421;49.142;9.232;2023-12-20T05:52:36;8.20;99.90
20526;DHT22;10421;49.142;9.232;2023-12-20T05:55:03;7.90;99.90
20526;DHT22;10421;49.142;9.232;2023-12-20T05:57:30;8.00;99.90
20526;DHT22;10421;49.142;9.232;2023-12-20T05:59:56;8.10;99.90
20526;DHT22;10421;49.142;9.232;2023-12-20T06:02:23;8.20;99.90
20526;DHT22;10421;49.142;9.232;2023-12-20T06:04:51;8.30;99.90
20526;DHT22;10421;49.142;9.232;2023-12-20T06:07:18;8.30;99.90
20526;DHT22;10421;49.142;9.232;2023-12-20T06:09:46;8.20;99.90
20526;DHT22;10421;49.142;9.232;2023-12-20T06:12:12;8.10;99.90
20526;DHT22;10421;49.142;9.232;2023-12-20T06:14:39;8.20;99.90
20526;DHT22;10421;49.142;9.232;2023-12-20T06:17:06;8.00;99.90
20526;DHT22;10421;49.142;9.232;2023-12-20T06:19:32;8.10;99.90
20526;DHT22;10421;49.142;9.232;2023-12-20T06:22:00;8.10;99.90
20526;DHT22;10421;49.142;9.232;2023-12-20T06:24:27;8.10;99.90
20526;DHT22;10421;49.142;9.232;2023-12-20T06:26:54;8.20;99.90
20526;DHT22;10421;49.142;9.232;2023-12-20T06:29:21;8.20;99.90
20526;DHT22;10421;49.142;9.232;2023-12-20T06:31:48;8.30;99.90
20526;DHT22;10421;49.142;9.232;2023-12-20T06:34:14;8.30;99.90
20526;DHT22;10421;49.142;9.232;2023-12-20T06:36:41;8.40;99.90
20526;DHT22;10421;49.142;9.232;2023-12-20T06:39:09;8.20;99.90
20526;DHT22;10421;49.142;9.232;2023-12-20T06:41:37;8.30;99.90
20526;DHT22;10421;49.142;9.232;2023-12-20T06:44:04;8.30;99.90
20526;DHT22;10421;49.142;9.232;2023-12-20T06:46:31;8.20;99.90
20526;DHT22;10421;49.142;9.232;2023-12-20T06:48:58;8.10;99.90
20526;DHT22;10421;49.142;9.232;2023-12-20T06:51:25;8.10;99.90
20526;DHT22;10421;49.142;9.232;2023-12-20T06:53:52;8.10;99.90
20526;DHT22;10421;49.142;9.232;2023-12-20T06:56:20;8.20;99.90
20526;DHT22;10421;49.142;9.232;2023-12-20T06:58:47;8.20;99.90
20526;DHT22;10421;49.142;9.232;2023-12-20T07:01:14;8.20;99.90
20526;DHT22;10421;49.142;9.232;2023-12-20T07:03:41;8.20;99.90
20526;DHT22;10421;49.142;9.232;2023-12-20T07:06:08;8.30;99.90
20526;DHT22;10421;49.142;9.232;2023-12-20T07:08:35;8.30;99.90
20526;DHT22;10421;49.142;9.232;2023-12-20T07:11:02;8.20;99.90
20526;DHT22;10421;49.142;9.232;2023-12-20T07:13:30;8.20;99.90
20526;DHT22;10421;49.142;9.232;2023-12-20T07:15:57;8.20;99.90
20526;DHT22;10421;49.142;9.232;2023-12-20T07:18:23;8.20;99.90
20526;DHT22;10421;49.142;9.232;2023-12-20T07:20:50;8.20;99.90
20526;DHT22;10421;49.142;9.232;2023-12-20T07:23:17;8.20;99.90
20526;DHT22;10421;49.142;9.232;2023-12-20T07:25:45;8.30;99.90
20526;DHT22;10421;49.142;9.232;2023-12-20T07:28:11;8.40;99.90
20526;DHT22;10421;49.142;9.232;2023-12-20T07:30:39;8.50;99.90
20526;DHT22;10421;49.142;9.232;2023-12-20T07:33:06;8.50;99.90
20526;DHT22;10421;49.142;9.232;2023-12-20T07:35:34;8.60;99.90
20526;DHT22;10421;49.142;9.232;2023-12-20T07:38:01;8.70;99.90
20526;DHT22;10421;49.142;9.232;2023-12-20T07:40:27;8.40;99.90
20526;DHT22;10421;49.142;9.232;2023-12-20T07:42:54;8.40;99.90
20526;DHT22;10421;49.142;9.232;2023-12-20T07:45:21;8.60;99.90
20526;DHT22;10421;49.142;9.232;2023-12-20T07:47:49;8.80;99.90
20526;DHT22;10421;49.142;9.232;2023-12-20T07:50:16;8.70;99.90
20526;DHT22;10421;49.142;9.232;2023-12-20T07:52:42;8.70;99.90
20526;DHT22;10421;49.142;9.232;2023-12-20T07:55:09;8.70;99.90
20526;DHT22;10421;49.142;9.232;2023-12-20T07:57:36;8.70;99.90
20526;DHT22;10421;49.142;9.232;2023-12-20T08:00:04;8.70;99.90
20526;DHT22;10421;49.142;9.232;2023-12-20T08:02:30;8.60;99.90
20526;DHT22;10421;49.142;9.232;2023-12-20T08:04:59;8.60;99.90
20526;DHT22;10421;49.142;9.232;2023-12-20T08:07:25;8.50;99.90
20526;DHT22;10421;49.142;9.232;2023-12-20T08:09:52;8.60;99.90
20526;DHT22;10421;49.142;9.232;2023-12-20T08:12:20;8.40;99.90
20526;DHT22;10421;49.142;9.232;2023-12-20T08:14:47;8.30;99.90
20526;DHT22;10421;49.142;9.232;2023-12-20T08:17:13;8.40;99.90
20526;DHT22;10421;49.142;9.232;2023-12-20T08:19:41;8.40;99.90
20526;DHT22;10421;49.142;9.232;2023-12-20T08:22:09;8.60;99.90
20526;DHT22;10421;49.142;9.232;2023-12-20T08:24:36;8.80;99.90
20526;DHT22;10421;49.142;9.232;2023-12-20T08:27:03;9.20;99.90
20526;DHT22;10421;49.142;9.232;2023-12-20T08:29:30;9.40;99.90
20526;DHT22;10421;49.142;9.232;2023-12-20T08:31:57;9.30;99.90
20526;DHT22;10421;49.142;9.232;2023-12-20T08:34:24;9.40;99.90
20526;DHT22;10421;49.142;9.232;2023-12-20T08:36:50;9.60;99.90
20526;DHT22;10421;49.142;9.232;2023-12-20T08:39:19;9.60;99.90
20526;DHT22;10421;49.142;9.232;2023-12-20T08:41:46;9.70;99.90
20526;DHT22;10421;49.142;9.232;2023-12-20T08:44:12;9.70;99.90
20526;DHT22;10421;49.142;9.232;2023-12-20T08:46:39;9.60;99.90
20526;DHT22;10421;49.142;9.232;2023-12-20T08:49:06;9.40;99.90
20526;DHT22;10421;49.142;9.232;2023-12-20T08:51:34;9.50;99.90
20526;DHT22;10421;49.142;9.232;2023-12-20T08:54:01;9.20;99.90
20526;DHT22;10421;49.142;9.232;2023-12-20T08:56:30;9.10;99.90
20526;DHT22;10421;49.142;9.232;2023-12-20T08:58:57;9.00;99.90
20526;DHT22;10421;49.142;9.232;2023-12-20T09:01:23;9.20;99.90
20526;DHT22;10421;49.142;9.232;2023-12-20T09:03:50;9.50;99.90
20526;DHT22;10421;49.142;9.232;2023-12-20T09:06:17;10.30;99.90
20526;DHT22;10421;49.142;9.232;2023-12-20T09:08:43;11.40;99.90
20526;DHT22;10421;49.142;9.232;2023-12-20T09:11:10;12.40;98.10
20526;DHT22;10421;49.142;9.232;2023-12-20T09:13:38;13.50;95.50
20526;DHT22;10421;49.142;9.232;2023-12-20T09:16:06;14.40;93.40
20526;DHT22;10421;49.142;9.232;2023-12-20T09:18:32;15.40;92.00
20526;DHT22;10421;49.142;9.232;2023-12-20T09:20:59;16.10;89.20
20526;DHT22;10421;49.142;9.232;2023-12-20T09:23:26;16.60;87.30
20526;DHT22;10421;49.142;9.232;2023-12-20T09:25:52;17.40;84.70
20526;DHT22;10421;49.142;9.232;2023-12-20T09:28:19;17.90;80.40
20526;DHT22;10421;49.142;9.232;2023-12-20T09:30:47;18.10;77.50
20526;DHT22;10421;49.142;9.232;2023-12-20T09:33:14;18.10;75.60
20526;DHT22;10421;49.142;9.232;2023-12-20T09:35:41;18.40;76.90
20526;DHT22;10421;49.142;9.232;2023-12-20T09:38:08;19.00;73.90
20526;DHT22;10421;49.142;9.232;2023-12-20T09:40:36;19.40;71.00
20526;DHT22;10421;49.142;9.232;2023-12-20T09:43:10;19.20;70.10
20526;DHT22;10421;49.142;9.232;2023-12-20T09:45:38;19.40;70.30
20526;DHT22;10421;49.142;9.232;2023-12-20T09:48:11;19.70;69.20
20526;DHT22;10421;49.142;9.232;2023-12-20T09:50:40;20.10;67.60
20526;DHT22;10421;49.142;9.232;2023-12-20T09:53:08;20.00;67.00
20526;DHT22;10421;49.142;9.232;2023-12-20T09:55:36;19.40;66.30
20526;DHT22;10421;49.142;9.232;2023-12-20T09:58:04;19.30;64.80
20526;DHT22;10421;49.142;9.232;2023-12-20T10:00:32;19.00;65.10
20526;DHT22;10421;49.142;9.232;2023-12-20T10:02:59;18.40;66.10
20526;DHT22;10421;49.142;9.232;2023-12-20T10:05:29;17.60;67.60
20526;DHT22;10421;49.142;9.232;2023-12-20T10:07:56;16.20;70.20
20526;DHT22;10421;49.142;9.232;2023-12-20T10:10:23;15.50;73.40
20526;DHT22;10421;49.142;9.232;2023-12-20T10:13:02;15.40;74.60
20526;DHT22;10421;49.142;9.232;2023-12-20T10:15:29;15.70;74.40
20526;DHT22;10421;49.142;9.232;2023-12-20T10:17:56;15.80;73.30
20526;DHT22;10421;49.142;9.232;2023-12-20T10:20:23;16.20;73.00
20526;DHT22;10421;49.142;9.232;2023-12-20T10:22:51;16.60;72.70
20526;DHT22;10421;49.142;9.232;2023-12-20T10:25:19;16.60;73.10
20526;DHT22;10421;49.142;9.232;2023-12-20T10:27:46;17.00;72.20
20526;DHT22;10421;49.142;9.232;2023-12-20T10:30:13;17.20;70.10
20526;DHT22;10421;49.142;9.232;2023-12-20T10:32:40;17.30;70.50
20526;DHT22;10421;49.142;9.232;2023-12-20T10:35:08;16.70;70.40
20526;DHT22;10421;49.142;9.232;2023-12-20T10:37:36;15.80;70.80
20526;DHT22;10421;49.142;9.232;2023-12-20T10:40:05;14.90;73.50
20526;DHT22;10421;49.142;9.232;2023-12-20T10:42:32;14.40;76.00
20526;DHT22;10421;49.142;9.232;2023-12-20T10:45:00;13.80;76.60
20526;DHT22;10421;49.142;9.232;2023-12-20T10:47:28;13.40;78.40
20526;DHT22;10421;49.142;9.232;2023-12-20T10:49:57;13.00;80.40
20526;DHT22;10421;49.142;9.232;2023-12-20T10:52:27;12.70;82.10
20526;DHT22;10421;49.142;9.232;2023-12-20T10:54:55;12.60;83.00
20526;DHT22;10421;49.142;9.232;2023-12-20T10:57:27;13.20;83.00
20526;DHT22;10421;49.142;9.232;2023-12-20T10:59:54;14.20;82.00
20526;DHT22;10421;49.142;9.232;2023-12-20T11:02:22;15.40;79.30
20526;DHT22;10421;49.142;9.232;2023-12-20T11:04:54;15.90;75.60
20526;DHT22;10421;49.142;9.232;2023-12-20T11:07:25;16.30;73.90
20526;DHT22;10421;49.142;9.232;2023-12-20T11:09:57;16.50;73.30
20526;DHT22;10421;49.142;9.232;2023-12-20T11:12:35;17.00;71.20
20526;DHT22;10421;49.142;9.232;2023-12-20T11:15:04;17.00;70.40
20526;DHT22;10421;49.142;9.232;2023-12-20T11:17:31;17.30;69.20
20526;DHT22;10421;49.142;9.232;2023-12-20T11:20:06;17.50;67.20
20526;DHT22;10421;49.142;9.232;2023-12-20T11:22:36;17.90;67.50
20526;DHT22;10421;49.142;9.232;2023-12-20T11:25:05;17.30;65.60
20526;DHT22;10421;49.142;9.232;2023-12-20T11:27:33;17.30;67.00
20526;DHT22;10421;49.142;9.232;2023-12-20T11:30:03;17.00;66.10
20526;DHT22;10421;49.142;9.232;2023-12-20T11:32:34;16.40;67.70
20526;DHT22;10421;49.142;9.232;2023-12-20T11:35:16;15.30;69.40
20526;DHT22;10421;49.142;9.232;2023-12-20T11:37:42;14.20;71.70
20526;DHT22;10421;49.142;9.232;2023-12-20T11:40:12;13.70;75.30
20526;DHT22;10421;49.142;9.232;2023-12-20T11:42:42;13.30;76.50
20526;DHT22;10421;49.142;9.232;2023-12-20T11:45:10;12.90;76.80
20526;DHT22;10421;49.142;9.232;2023-12-20T11:47:37;12.70;79.40
20526;DHT22;10421;49.142;9.232;2023-12-20T11:50:05;12.20;80.70
20526;DHT22;10421;49.142;9.232;2023-12-20T11:52:32;11.80;81.00
20526;DHT22;10421;49.142;9.232;2023-12-20T11:54:58;11.80;81.50
20526;DHT22;10421;49.142;9.232;2023-12-20T11:57:25;11.90;82.10
20526;DHT22;10421;49.142;9.232;2023-12-20T11:59:53;12.30;81.50
20526;DHT22;10421;49.142;9.232;2023-12-20T12:02:20;12.50;80.40
20526;DHT22;10421;49.142;9.232;2023-12-20T12:04:48;12.70;79.10
20526;DHT22;10421;49.142;9.232;2023-12-20T12:07:16;12.70;79.40
20526;DHT22;10421;49.142;9.232;2023-12-20T12:09:43;12.70;80.60
20526;DHT22;10421;49.142;9.232;2023-12-20T12:12:09;13.00;79.70
20526;DHT22;10421;49.142;9.232;2023-12-20T12:14:37;12.80;79.90
20526;DHT22;10421;49.142;9.232;2023-12-20T12:17:10;12.70;79.70
20526;DHT22;10421;49.142;9.232;2023-12-20T12:19:36;12.40;80.90
20526;DHT22;10421;49.142;9.232;2023-12-20T12:22:07;12.20;81.50
20526;DHT22;10421;49.142;9.232;2023-12-20T12:24:36;11.70;83.40
20526;DHT22;10421;49.142;9.232;2023-12-20T12:27:05;11.50;85.00
20526;DHT22;10421;49.142;9.232;2023-12-20T12:29:32;11.40;86.30
20526;DHT22;10421;49.142;9.232;2023-12-20T12:31:59;11.10;87.90
20526;DHT22;10421;49.142;9.232;2023-12-20T12:34:28;10.90;89.30
20526;DHT22;10421;49.142;9.232;2023-12-20T12:36:55;10.60;90.60
20526;DHT22;10421;49.142;9.232;2023-12-20T12:39:23;10.80;91.00
20526;DHT22;10421;49.142;9.232;2023-12-20T12:41:50;10.70;91.00
20526;DHT22;10421;49.142;9.232;2023-12-20T12:44:17;10.60;91.30
20526;DHT22;10421;49.142;9.232;2023-12-20T12:46:44;10.40;91.80
20526;DHT22;10421;49.142;9.232;2023-12-20T12:49:11;10.20;92.30
20526;DHT22;10421;49.142;9.232;2023-12-20T12:51:39;9.80;94.20
20526;DHT22;10421;49.142;9.232;2023-12-20T12:54:06;9.80;94.30
20526;DHT22;10421;49.142;9.232;2023-12-20T12:56:34;9.90;94.60
20526;DHT22;10421;49.142;9.232;2023-12-20T12:59:01;9.70;95.00
20526;DHT22;10421;49.142;9.232;2023-12-20T13:01:27;9.70;95.70
20526;DHT22;10421;49.142;9.232;2023-12-20T13:03:54;9.70;95.90
20526;DHT22;10421;49.142;9.232;2023-12-20T13:06:21;9.70;96.00
20526;DHT22;10421;49.142;9.232;2023-12-20T13:08:49;9.70;97.00
20526;DHT22;10421;49.142;9.232;2023-12-20T13:11:16;9.60;97.10
20526;DHT22;10421;49.142;9.232;2023-12-20T13:13:42;9.60;98.20
20526;DHT22;10421;49.142;9.232;2023-12-20T13:16:09;9.40;99.00
20526;DHT22;10421;49.142;9.232;2023-12-20T13:18:36;9.40;99.00
20526;DHT22;10421;49.142;9.232;2023-12-20T13:21:03;9.30;99.40
20526;DHT22;10421;49.142;9.232;2023-12-20T13:23:30;9.30;99.40
20526;DHT22;10421;49.142;9.232;2023-12-20T13:25:58;9.40;99.40
20526;DHT22;10421;49.142;9.232;2023-12-20T13:28:25;9.00;99.30
20526;DHT22;10421;49.142;9.232;2023-12-20T13:30:52;9.00;99.50
20526;DHT22;10421;49.142;9.232;2023-12-20T13:33:18;8.90;99.60
20526;DHT22;10421;49.142;9.232;2023-12-20T13:35:45;8.80;99.70
20526;DHT22;10421;49.142;9.232;2023-12-20T13:38:12;8.80;99.90
20526;DHT22;10421;49.142;9.232;2023-12-20T13:40:39;8.70;99.90
20526;DHT22;10421;49.142;9.232;2023-12-20T13:43:08;8.60;99.90
20526;DHT22;10421;49.142;9.232;2023-12-20T13:45:36;8.70;99.90
20526;DHT22;10421;49.142;9.232;2023-12-20T13:48:03;8.70;99.90
20526;DHT22;10421;49.142;9.232;2023-12-20T13:50:30;8.70;99.90
20526;DHT22;10421;49.142;9.232;2023-12-20T13:52:56;8.70;99.90
20526;DHT22;10421;49.142;9.232;2023-12-20T13:55:23;8.60;99.90
20526;DHT22;10421;49.142;9.232;2023-12-20T13:57:52;8.50;99.90
20526;DHT22;10421;49.142;9.232;2023-12-20T14:00:21;8.60;99.90
20526;DHT22;10421;49.142;9.232;2023-12-20T14:02:47;8.50;99.90
20526;DHT22;10421;49.142;9.232;2023-12-20T14:05:15;8.40;99.90
20526;DHT22;10421;49.142;9.232;2023-12-20T14:07:43;8.40;99.90
20526;DHT22;10421;49.142;9.232;2023-12-20T14:10:11;8.30;99.90
20526;DHT22;10421;49.142;9.232;2023-12-20T14:12:38;8.30;99.90
20526;DHT22;10421;49.142;9.232;2023-12-20T14:15:05;8.10;99.90
20526;DHT22;10421;49.142;9.232;2023-12-20T14:17:36;8.10;99.90
20526;DHT22;10421;49.142;9.232;2023-12-20T14:20:03;8.10;99.90
20526;DHT22;10421;49.142;9.232;2023-12-20T14:22:30;8.00;99.90
20526;DHT22;10421;49.142;9.232;2023-12-20T14:24:57;8.10;99.90
20526;DHT22;10421;49.142;9.232;2023-12-20T14:27:24;8.10;99.90
20526;DHT22;10421;49.142;9.232;2023-12-20T14:29:53;8.20;99.90
20526;DHT22;10421;49.142;9.232;2023-12-20T14:32:20;8.30;99.90
20526;DHT22;10421;49.142;9.232;2023-12-20T14:34:48;8.40;99.90
20526;DHT22;10421;49.142;9.232;2023-12-20T14:37:14;8.50;99.90
20526;DHT22;10421;49.142;9.232;2023-12-20T14:39:42;8.30;99.90
20526;DHT22;10421;49.142;9.232;2023-12-20T14:42:09;8.30;99.90
20526;DHT22;10421;49.142;9.232;2023-12-20T14:44:39;8.20;99.90
20526;DHT22;10421;49.142;9.232;2023-12-20T14:47:06;8.20;99.90
20526;DHT22;10421;49.142;9.232;2023-12-20T14:49:33;8.30;99.90
20526;DHT22;10421;49.142;9.232;2023-12-20T14:52:01;8.30;99.90
20526;DHT22;10421;49.142;9.232;2023-12-20T14:54:28;8.10;99.90
20526;DHT22;10421;49.142;9.232;2023-12-20T14:56:55;8.20;99.90
20526;DHT22;10421;49.142;9.232;2023-12-20T14:59:22;8.20;99.90
20526;DHT22;10421;49.142;9.232;2023-12-20T15:01:48;8.20;99.90
20526;DHT22;10421;49.142;9.232;2023-12-20T15:04:16;8.10;99.90
20526;DHT22;10421;49.142;9.232;2023-12-20T15:06:42;8.20;99.90
20526;DHT22;10421;49.142;9.232;2023-12-20T15:09:11;8.20;99.90
20526;DHT22;10421;49.142;9.232;2023-12-20T15:11:38;7.90;99.90
20526;DHT22;10421;49.142;9.232;2023-12-20T15:14:05;7.80;99.90
20526;DHT22;10421;49.142;9.232;2023-12-20T15:16:32;7.70;99.90
20526;DHT22;10421;49.142;9.232;2023-12-20T15:18:59;7.80;99.90
20526;DHT22;10421;49.142;9.232;2023-12-20T15:21:26;7.70;99.90
20526;DHT22;10421;49.142;9.232;2023-12-20T15:23:57;7.80;99.90
20526;DHT22;10421;49.142;9.232;2023-12-20T15:26:32;7.90;99.90
20526;DHT22;10421;49.142;9.232;2023-12-20T15:28:59;7.80;99.90
20526;DHT22;10421;49.142;9.232;2023-12-20T15:31:26;7.70;99.90
20526;DHT22;10421;49.142;9.232;2023-12-20T15:33:53;7.70;99.90
20526;DHT22;10421;49.142;9.232;2023-12-20T15:36:19;7.60;99.90
20526;DHT22;10421;49.142;9.232;2023-12-20T15:38:46;7.40;99.90
20526;DHT22;10421;49.142;9.232;2023-12-20T15:41:17;7.50;99.90
20526;DHT22;10421;49.142;9.232;2023-12-20T15:43:45;7.60;99.90